Wednesday, January 17, 2018, 1:17 PM GMT
Back to Local

CYSC, Sherbrooke, Que.

Location: , , Canada Lat: 45.4
Local Time: 1:17 PM GMT (13:17 GMT) Lon: -71.883
Time Zone: GMT Elev: 557 ft

Show me the last for .
Show Decoded

2018-01-17 13:00 METAR CYSC 171300Z AUTO 08002KT 9SM FEW034 SCT240 M10/M11 A3030 RMK SLP279 =
2018-01-17 12:00 METAR CYSC 171200Z AUTO 12004KT 9SM FEW049 M10/M11 A3030 RMK SLP280 =
2018-01-17 11:00 METAR CYSC 171100Z AUTO 00000KT 9SM SCT028 M10/M11 A3032 RMK SLP285 =
2018-01-17 10:00 METAR CYSC 171000Z AUTO 00000KT 9SM CLR M10/M12 A3031 RMK SLP282 =
2018-01-17 09:00 METAR CYSC 170900Z AUTO 00000KT 9SM FEW250 M11/M12 A3031 RMK SLP283 =
2018-01-17 08:18 METAR CYSC 170818Z AUTO 00000KT 9SM BKN100 BKN240 M11/M12 A3031 RMK SLP284 =
2018-01-17 08:00 METAR CYSC 170800Z AUTO 00000KT 6SM -SN FEW012 M10/M12 A3032 RMK SLP286 =
2018-01-17 07:59 METAR CYSC 170759Z AUTO 00000KT 6SM -SN SCT012 M10/M12 A3032 RMK SLP286 =
2018-01-17 07:52 METAR CYSC 170752Z AUTO 00000KT 3SM -SN SCT014 M10/M11 A3032 RMK SLP287 =
2018-01-17 07:50 METAR CYSC 170750Z AUTO 00000KT 3SM -SN BKN014 M10/M11 A3032 RMK SLP287 =
2018-01-17 07:00 METAR CYSC 170700Z AUTO 10002KT 2SM -SN BKN016 M09/M11 A3032 RMK SLP286 =
2018-01-17 06:45 METAR CYSC 170645Z AUTO 00000KT 2SM -SN BKN014 M09/M11 A3033 RMK SLP288 =
2018-01-17 06:11 METAR CYSC 170611Z AUTO 00000KT 1 3/4SM -SN BKN016 M09/M11 A3033 RMK SLP288 =
2018-01-17 06:06 METAR CYSC 170606Z AUTO 03002KT 2 1/2SM -SN BKN016 M10/M11 A3033 RMK SLP288 =
2018-01-17 06:05 METAR CYSC 170605Z AUTO 03002KT 2 1/2SM -SN SCT016 M10/M11 A3033 RMK SLP288 =
2018-01-17 06:00 METAR CYSC 170600Z AUTO 02002KT 4SM -SN SCT018 M10/M11 A3033 RMK SLP289 =
2018-01-17 05:44 METAR CYSC 170544Z AUTO VRB02KT 3SM -SN SCT016 M10/M11 A3033 RMK SLP288 =
2018-01-17 05:42 METAR CYSC 170542Z AUTO VRB02KT 3SM -SN BKN016 M10/M11 A3033 RMK SLP288 =
2018-01-17 05:31 METAR CYSC 170531Z AUTO 00000KT 2 1/2SM -SN BKN016 M10/M11 A3033 RMK SLP288 =
2018-01-17 05:26 METAR CYSC 170526Z AUTO 10002KT 4SM -SN BKN016 M10/M11 A3033 RMK SLP288 =
2018-01-17 05:08 METAR CYSC 170508Z AUTO 10002KT 5SM -SN SCT016 BKN041 M10/M11 A3033 RMK SLP290 =
2018-01-17 05:00 METAR CYSC 170500Z AUTO 00000KT 9SM -SN FEW020 M10/M11 A3034 RMK SLP292 =
2018-01-17 04:10 METAR CYSC 170410Z AUTO 09002KT 9SM -SN OVC055 M10/M12 A3034 RMK SLP295 =
2018-01-17 04:00 METAR CYSC 170400Z AUTO 09002KT 9SM OVC060 M11/M12 A3034 RMK SLP295 =
2018-01-17 03:00 METAR CYSC 170300Z AUTO VRB02KT 9SM OVC060 M10/M11 A3035 RMK SLP299 =
2018-01-17 02:15 METAR CYSC 170215Z AUTO 11002KT 9SM OVC060 M10/M11 A3036 RMK SLP302 =
2018-01-17 02:03 METAR CYSC 170203Z AUTO 08003KT 9SM -SN BKN060 M10/M12 A3035 RMK SLP300 =
2018-01-17 02:00 METAR CYSC 170200Z AUTO 08003KT 9SM BKN060 M10/M11 A3035 RMK SLP300 =
2018-01-17 01:57 METAR CYSC 170157Z AUTO 08003KT 9SM BKN060 M10/M11 A3036 RMK SLP301 =
2018-01-17 01:27 METAR CYSC 170127Z AUTO 00000KT 9SM -SN FEW060 M10/M11 A3036 RMK SLP303 =
2018-01-17 01:25 METAR CYSC 170125Z AUTO 00000KT 9SM FEW060 M10/M11 A3036 RMK SLP303 =
2018-01-17 01:13 METAR CYSC 170113Z AUTO 00000KT 7SM -SN SCT060 SCT250 M09/M10 A3036 RMK SLP304 =
2018-01-17 01:00 METAR CYSC 170100Z AUTO 08002KT 9SM SCT060 SCT250 M10/M10 A3037 RMK SLP305 =
2018-01-17 00:52 METAR CYSC 170052Z AUTO 11003KT 9SM FEW060 M10/M11 A3037 RMK SLP305 =
2018-01-17 00:00 METAR CYSC 170000Z AUTO 00000KT 9SM -SN FEW043 BKN060 M09/M10 A3037 RMK SLP307 =
2018-01-16 23:57 METAR CYSC 162357Z AUTO 00000KT 9SM -SN FEW043 BKN060 M09/M10 A3038 RMK SLP308 =
2018-01-16 23:52 METAR CYSC 162352Z AUTO 00000KT 9SM FEW043 OVC060 M09/M10 A3038 RMK SLP308 =
2018-01-16 23:00 METAR CYSC 162300Z AUTO 00000KT 8SM -SN BKN037 BKN065 M09/M09 A3038 RMK SLP308 =
2018-01-16 22:21 METAR CYSC 162221Z AUTO 00000KT 9SM -SN FEW065 M08/M09 A3037 RMK SLP305 =
2018-01-16 22:00 METAR CYSC 162200Z AUTO 13003KT 9SM SCT065 M08/M09 A3036 RMK SLP303 =
2018-01-16 21:49 METAR CYSC 162149Z AUTO 12003KT 9SM BKN065 BKN250 M07/M09 A3036 RMK SLP303 =
2018-01-16 21:25 METAR CYSC 162125Z AUTO 11002KT 9SM -SN SCT055 SCT250 M07/M09 A3036 RMK SLP304 =
2018-01-16 21:19 METAR CYSC 162119Z AUTO 12002KT 9SM BKN055 BKN240 M07/M09 A3036 RMK SLP304 =
2018-01-16 21:00 METAR CYSC 162100Z AUTO 08002KT 9SM -SN FEW020 SCT240 M07/M09 A3036 RMK SLP302 =
2018-01-16 20:52 METAR CYSC 162052Z AUTO 00000KT 7SM -SN SCT020 M07/M09 A3036 RMK SLP304 =
2018-01-16 20:33 METAR CYSC 162033Z AUTO VRB02KT 5SM -SN SCT020 SCT036 M06/M09 A3036 RMK SLP303 =
2018-01-16 20:20 METAR CYSC 162020Z AUTO 30003KT 6SM -SN FEW020 SCT036 SCT240 M06/M09 A3036 RMK
                 SLP303 =
2018-01-16 20:00 METAR CYSC 162000Z AUTO 29002KT 3SM -SN SCT020 SCT250 M06/M09 A3036 RMK SLP302 =
2018-01-16 19:52 METAR CYSC 161952Z AUTO 00000KT 3SM -SN SCT020 BKN250 M06/M09 A3036 RMK SLP301 =
2018-01-16 19:46 METAR CYSC 161946Z AUTO 29002KT 5SM -SN BKN020 BKN250 M06/M09 A3035 RMK SLP300 =
2018-01-16 19:44 METAR CYSC 161944Z AUTO 00000KT 6SM -SN BKN020 BKN250 M06/M09 A3035 RMK SLP300 =
2018-01-16 19:22 METAR CYSC 161922Z AUTO 30004KT 5SM -SN BKN022 BKN250 M06/M10 A3035 RMK SLP300 =
2018-01-16 19:15 METAR CYSC 161915Z AUTO 29003KT 5SM -SN SCT022 BKN028 BKN240 M06/M10 A3035 RMK
                 SLP300 =
2018-01-16 19:14 METAR CYSC 161914Z AUTO 30003KT 5SM -SN BKN022 BKN028 BKN240 M06/M10 A3035 RMK
                 SLP300 =
2018-01-16 19:00 METAR CYSC 161900Z AUTO 29003KT 220V300 8SM -SN BKN024 BKN032 BKN250 M06/M10
                 A3035 RMK SLP298 =
2018-01-16 18:47 METAR CYSC 161847Z AUTO 22005KT 9SM -SN BKN024 BKN032 M07/M10 A3035 RMK SLP298 =
2018-01-16 18:00 METAR CYSC 161800Z AUTO 25004KT 240V310 9SM -SN OVC032 M07/M11 A3035 RMK SLP298
                 =
2018-01-16 17:31 METAR CYSC 161731Z AUTO 29005KT 9SM -SN OVC032 M07/M11 A3035 RMK SLP300 =
2018-01-16 17:00 METAR CYSC 161700Z AUTO VRB02KT 9SM BKN030 OVC090 M08/M12 A3036 RMK SLP303 =
2018-01-16 16:00 METAR CYSC 161600Z AUTO 12002KT 9SM FEW100 SCT250 M10/M14 A3039 RMK SLP313 =
2018-01-16 15:09 METAR CYSC 161509Z AUTO VRB02KT 9SM FEW034 SCT250 M13/M16 A3040 RMK SLP319 =
2018-01-16 15:00 METAR CYSC 161500Z AUTO 09003KT 9SM -SN SCT034 BKN042 BKN250 M13/M16 A3040 RMK
                 SLP318 =
2018-01-16 14:00 METAR CYSC 161400Z AUTO 08005KT 9SM -SN BKN034 M14/M17 A3041 RMK SLP321 =

Support USWX by starting your Amazon purchase here.